createdAt,value
2022-11-23T00:03:05.708Z,-0.12
2022-11-23T00:08:10.976Z,-0.24
2022-11-23T00:13:14.729Z,0.50
2022-11-23T00:18:18.600Z,-0.43
2022-11-23T00:23:23.994Z,-0.01
2022-11-23T00:28:28.140Z,-0.16
2022-11-23T00:33:31.904Z,-0.13
2022-11-23T00:38:39.141Z,0.12
2022-11-23T00:43:44.497Z,0.03
2022-11-23T00:48:50.045Z,-0.05
2022-11-23T00:53:55.482Z,-0.11
2022-11-23T00:59:02.385Z,-0.11
2022-11-23T01:04:08.421Z,0.20
2022-11-23T01:09:14.801Z,0.63
2022-11-23T01:14:18.817Z,-0.25
2022-11-23T01:19:22.649Z,-0.11
2022-11-23T01:24:27.960Z,-0.65
2022-11-23T01:29:32.222Z,-0.32
2022-11-23T01:34:38.303Z,-0.24
2022-11-23T01:39:43.399Z,-0.49
2022-11-23T01:44:47.269Z,-0.80
2022-11-23T01:49:53.914Z,-0.39
2022-11-23T01:55:03.885Z,0.05
2022-11-23T02:00:13.697Z,0.02
2022-11-23T02:05:20.090Z,0.31
2022-11-23T02:10:25.274Z,0.25
2022-11-23T02:15:29.401Z,-0.21
2022-11-23T02:20:33.698Z,0.09
2022-11-23T02:25:45.711Z,-0.41
2022-11-23T02:30:53.872Z,-0.60
2022-11-23T02:36:02.388Z,-0.89
2022-11-23T02:41:06.935Z,-0.84
2022-11-23T02:46:13.419Z,-0.84
2022-11-23T02:51:17.185Z,-0.42
2022-11-23T02:56:20.928Z,-0.60
2022-11-23T03:01:26.611Z,-0.79
2022-11-23T03:06:30.691Z,-0.26
2022-11-23T03:11:35.338Z,-0.60
2022-11-23T03:16:41.143Z,-0.88
2022-11-23T03:21:45.294Z,-0.38
2022-11-23T03:26:49.438Z,-0.57
2022-11-23T03:31:58.142Z,-0.89
2022-11-23T03:37:01.926Z,-0.16
2022-11-23T03:42:06.170Z,-0.11
2022-11-23T03:47:13.200Z,0.30
2022-11-23T03:52:16.978Z,-0.43
2022-11-23T03:57:21.650Z,-0.70
2022-11-23T04:02:27.282Z,-0.43
2022-11-23T04:07:41.749Z,-0.14
2022-11-23T04:12:45.849Z,-0.87
2022-11-23T04:17:53.064Z,-0.67
2022-11-23T04:22:56.915Z,-0.18
2022-11-23T04:28:02.541Z,-0.02
2022-11-23T04:33:08.295Z,-0.33
2022-11-23T04:38:12.280Z,-0.32
2022-11-23T04:43:16.177Z,0.13
2022-11-23T04:48:21.926Z,-0.55
2022-11-23T04:53:26.168Z,-0.16
2022-11-23T04:58:34.629Z,-0.58
2022-11-23T05:03:40.389Z,-0.69
2022-11-23T05:08:46.073Z,-0.79
2022-11-23T05:14:15.649Z,-0.63
2022-11-23T05:19:20.920Z,-0.61
2022-11-23T05:24:25.527Z,-0.10
2022-11-23T05:29:45.160Z,-0.51
2022-11-23T05:34:51.132Z,-0.50
2022-11-23T05:39:56.132Z,-0.08
2022-11-23T05:45:00.869Z,-0.50
2022-11-23T05:50:15.254Z,-0.61
2022-11-23T05:55:22.055Z,-0.72
2022-11-23T06:00:26.027Z,-0.72
2022-11-23T06:05:37.466Z,-0.45
2022-11-23T06:10:41.247Z,-1.03
2022-11-23T06:15:45.144Z,-0.10
2022-11-23T06:20:51.335Z,0.05
2022-11-23T06:25:55.401Z,-0.04
2022-11-23T06:31:04.658Z,-0.24
2022-11-23T06:36:12.661Z,-0.41
2022-11-23T06:41:22.733Z,-0.88
2022-11-23T06:46:27.387Z,-0.48
2022-11-23T06:51:33.615Z,-0.72
2022-11-23T06:56:37.378Z,-0.73
2022-11-23T07:01:41.255Z,-0.14
2022-11-23T07:06:48.864Z,-0.61
2022-11-23T07:12:04.327Z,-0.20
2022-11-23T07:17:08.482Z,-0.28
2022-11-23T07:22:14.537Z,-0.34
2022-11-23T07:27:18.735Z,-0.73
2022-11-23T07:32:22.919Z,-0.76
2022-11-23T07:37:28.512Z,-0.06
2022-11-23T07:42:36.804Z,-0.35
2022-11-23T07:47:43.506Z,-0.55
2022-11-23T07:52:48.649Z,0.05
2022-11-23T07:57:56.502Z,-0.48
2022-11-23T08:08:28.162Z,-0.03
2022-11-23T08:13:31.988Z,0.67
2022-11-23T08:18:36.106Z,0.07
2022-11-23T08:23:41.283Z,0.35
2022-11-23T08:28:45.227Z,-0.11
2022-11-23T08:33:49.283Z,0.14
2022-11-23T08:38:54.610Z,1.08
2022-11-23T08:43:58.584Z,0.40
2022-11-23T08:49:02.719Z,0.32
2022-11-23T08:54:08.029Z,0.57
2022-11-23T08:59:12.544Z,-0.32
2022-11-23T09:04:20.520Z,-0.24
2022-11-23T09:09:26.110Z,0.19
2022-11-23T09:14:30.614Z,-0.33
2022-11-23T09:19:34.584Z,0.12
2022-11-23T09:24:39.834Z,-0.21
2022-11-23T09:29:43.695Z,0.77
2022-11-23T09:34:47.461Z,0.73
2022-11-23T09:39:52.576Z,0.20
2022-11-23T09:45:13.045Z,0.70
2022-11-23T09:50:23.185Z,0.28
2022-11-23T09:55:38.867Z,-0.04
2022-11-23T10:00:47.529Z,0.46
2022-11-23T10:06:08.821Z,0.74
2022-11-23T10:11:33.936Z,0.56
2022-11-23T10:16:45.579Z,0.55
2022-11-23T10:21:56.126Z,0.50
2022-11-23T10:27:03.776Z,0.23
2022-11-23T10:32:22.822Z,0.20
2022-11-23T10:37:26.969Z,0.27
2022-11-23T10:42:38.424Z,0.58
2022-11-23T10:47:49.322Z,0.06
2022-11-23T10:52:55.817Z,0.02
2022-11-23T10:58:02.218Z,1.09
2022-11-23T11:03:25.001Z,0.25
2022-11-23T11:08:32.178Z,-0.37
2022-11-23T11:13:45.137Z,-0.11
2022-11-23T11:18:49.540Z,0.38
2022-11-23T11:23:55.573Z,0.43
2022-11-23T11:29:04.207Z,1.13
2022-11-23T11:34:17.492Z,1.28
2022-11-23T11:39:27.108Z,1.20
2022-11-23T11:44:36.087Z,0.43
2022-11-23T11:49:45.503Z,0.68
2022-11-23T11:54:54.611Z,1.28
2022-11-23T12:00:02.000Z,1.53
2022-11-23T12:05:19.069Z,1.22
2022-11-23T12:10:29.252Z,0.97
2022-11-23T12:15:49.419Z,0.84
2022-11-23T12:21:01.518Z,0.48
2022-11-23T12:26:20.809Z,0.94
2022-11-23T12:31:40.763Z,0.65
2022-11-23T12:37:05.935Z,0.75
2022-11-23T12:42:18.283Z,0.96
2022-11-23T12:47:36.297Z,1.19
2022-11-23T12:52:54.080Z,1.88
2022-11-23T12:58:05.364Z,1.27
2022-11-23T13:04:15.153Z,0.62
2022-11-23T13:09:56.790Z,0.92
2022-11-23T13:15:18.475Z,0.14
2022-11-23T13:20:33.316Z,0.05
2022-11-23T13:25:40.932Z,0.03
2022-11-23T13:31:13.997Z,1.30
2022-11-23T13:36:18.500Z,1.86
2022-11-23T13:42:00.633Z,1.43
2022-11-23T13:47:19.757Z,0.42
2022-11-23T13:52:36.380Z,0.25
2022-11-23T13:57:41.058Z,0.15
2022-11-23T14:02:44.951Z,-0.19
2022-11-23T14:07:51.036Z,0.15
2022-11-23T14:12:58.772Z,-0.02
2022-11-23T14:18:41.185Z,-0.18
2022-11-23T14:24:21.683Z,1.42
2022-11-23T14:29:36.594Z,0.19
2022-11-23T14:34:53.654Z,0.32
2022-11-23T14:40:11.771Z,1.31
2022-11-23T14:45:17.042Z,0.73
2022-11-23T14:50:25.856Z,0.21
2022-11-23T14:55:32.862Z,0.09
2022-11-23T15:00:40.255Z,1.09
2022-11-23T15:05:47.373Z,0.45
2022-11-23T15:11:01.736Z,0.55
2022-11-23T15:16:06.299Z,0.26
2022-11-23T15:21:25.531Z,-0.26
2022-11-23T15:26:50.152Z,-0.16
2022-11-23T15:32:14.321Z,-0.19
2022-11-23T15:37:18.747Z,0.10
2022-11-23T15:42:25.785Z,0.10
2022-11-23T15:47:31.356Z,-0.25
2022-11-23T15:52:36.658Z,-0.38
2022-11-23T15:57:43.009Z,-0.23
2022-11-23T16:02:46.919Z,-0.49
2022-11-23T16:07:53.109Z,0.23
2022-11-23T16:13:00.333Z,0.18
2022-11-23T16:18:05.802Z,0.33
2022-11-23T16:23:20.615Z,-0.05
2022-11-23T16:28:29.766Z,0.06
2022-11-23T16:33:34.174Z,0.24
2022-11-23T16:38:38.250Z,0.19
2022-11-23T16:43:43.414Z,-0.17
2022-11-23T16:48:47.406Z,0.38
2022-11-23T16:54:12.995Z,0.41
2022-11-23T16:59:19.164Z,0.32
2022-11-23T17:04:23.496Z,0.04
2022-11-23T17:09:27.399Z,-0.13
2022-11-23T17:14:38.180Z,0.39
2022-11-23T17:19:47.136Z,0.33
2022-11-23T17:24:52.768Z,0.09
2022-11-23T17:30:00.741Z,0.14
2022-11-23T17:35:05.514Z,1.17
2022-11-23T17:40:14.821Z,0.22
2022-11-23T17:45:20.155Z,0.31
2022-11-23T17:50:25.276Z,0.60
2022-11-23T17:55:29.427Z,0.03
2022-11-23T18:00:36.366Z,0.53
2022-11-23T18:05:40.325Z,0.03
2022-11-23T18:10:44.221Z,0.56
2022-11-23T18:15:49.408Z,0.04
2022-11-23T18:20:53.442Z,0.32
2022-11-23T18:26:01.587Z,1.04
2022-11-23T18:31:07.253Z,1.55
2022-11-23T18:36:12.945Z,2.28
2022-11-23T18:41:18.307Z,2.01
2022-11-23T18:46:24.251Z,1.83
2022-11-23T18:51:28.034Z,1.66
2022-11-23T18:56:32.762Z,1.94
2022-11-23T19:01:38.263Z,1.69
2022-11-23T19:06:42.800Z,1.79
2022-11-23T19:11:47.647Z,1.94
2022-11-23T19:16:53.038Z,2.62
2022-11-23T19:21:56.858Z,2.21
2022-11-23T19:27:00.675Z,1.77
2022-11-23T19:32:06.816Z,2.59
2022-11-23T19:37:11.029Z,2.84
2022-11-23T19:42:14.798Z,2.42
2022-11-23T19:47:22.920Z,2.48
2022-11-23T19:52:47.962Z,2.71
2022-11-23T19:57:52.905Z,2.10
2022-11-23T20:02:59.452Z,2.45
2022-11-23T20:08:04.032Z,3.13
2022-11-23T20:13:07.864Z,1.85
2022-11-23T20:18:13.270Z,2.11
2022-11-23T20:23:17.149Z,2.57
2022-11-23T20:28:21.193Z,2.55
2022-11-23T20:33:26.381Z,3.15
2022-11-23T20:38:30.387Z,3.00
2022-11-23T20:43:34.303Z,2.20
2022-11-23T20:48:40.721Z,2.65
2022-11-23T20:53:48.201Z,2.60
2022-11-23T20:58:55.999Z,3.21
2022-11-23T21:04:01.604Z,2.07
2022-11-23T21:09:05.512Z,1.90
2022-11-23T21:14:17.644Z,1.72
2022-11-23T21:19:25.439Z,1.62
2022-11-23T21:24:29.683Z,1.76
2022-11-23T21:29:34.191Z,1.97
2022-11-23T21:34:39.370Z,1.75
2022-11-23T21:39:46.585Z,1.52
2022-11-23T21:44:53.578Z,1.95
2022-11-23T21:49:58.804Z,1.98
2022-11-23T21:55:03.045Z,2.36
2022-11-23T22:00:08.043Z,1.64
2022-11-23T22:05:17.420Z,1.59
2022-11-23T22:10:21.279Z,1.44
2022-11-23T22:15:25.155Z,1.22
2022-11-23T22:20:30.419Z,2.00
2022-11-23T22:25:34.233Z,2.64
2022-11-23T22:30:38.175Z,2.38
2022-11-23T22:35:43.576Z,1.47
2022-11-23T22:40:47.766Z,1.80
2022-11-23T22:45:51.861Z,2.23
2022-11-23T22:50:57.957Z,2.11
2022-11-23T22:56:02.895Z,2.27
2022-11-23T23:01:08.899Z,3.07
2022-11-23T23:06:16.280Z,2.65
2022-11-23T23:11:21.226Z,2.58
2022-11-23T23:16:25.628Z,2.77
2022-11-23T23:21:31.140Z,1.97
2022-11-23T23:26:35.585Z,2.35
2022-11-23T23:31:39.650Z,1.47
2022-11-23T23:36:44.910Z,1.85
2022-11-23T23:41:50.006Z,1.83
2022-11-23T23:46:53.784Z,2.47
2022-11-23T23:51:59.160Z,2.54
2022-11-23T23:57:03.399Z,2.50
